createdAt,value
2018-10-07T00:00:04.551Z,11.80
2018-10-07T00:02:32.472Z,20.10
2018-10-07T00:05:00.631Z,13.67
2018-10-07T00:07:28.784Z,14.53
2018-10-07T00:09:56.945Z,13.73
2018-10-07T00:12:25.107Z,13.20
2018-10-07T00:14:53.044Z,10.93
2018-10-07T00:17:20.965Z,15.90
2018-10-07T00:19:48.887Z,12.47
2018-10-07T00:22:16.807Z,15.47
2018-10-07T00:24:44.999Z,15.30
2018-10-07T00:27:13.151Z,14.17
2018-10-07T00:29:41.304Z,14.37
2018-10-07T00:32:15.168Z,12.10
2018-10-07T00:34:44.546Z,11.10
2018-10-07T00:37:12.696Z,12.87
2018-10-07T00:39:40.910Z,12.37
2018-10-07T00:42:09.081Z,13.43
2018-10-07T00:44:36.990Z,11.00
2018-10-07T00:47:04.992Z,12.77
2018-10-07T00:49:33.143Z,12.00
2018-10-07T00:52:01.084Z,11.00
2018-10-07T00:54:29.030Z,11.40
2018-10-07T00:56:57.234Z,14.40
2018-10-07T00:59:25.367Z,10.77
2018-10-07T01:01:53.520Z,12.73
2018-10-07T01:04:21.654Z,11.53
2018-10-07T01:06:49.827Z,13.40
2018-10-07T01:09:17.958Z,11.50
2018-10-07T01:11:46.103Z,10.57
2018-10-07T01:14:14.264Z,13.43
2018-10-07T01:16:42.182Z,11.03
2018-10-07T01:19:10.329Z,11.20
2018-10-07T01:21:38.484Z,11.10
2018-10-07T01:24:06.647Z,19.63
2018-10-07T01:26:34.807Z,12.37
2018-10-07T01:29:02.717Z,11.87
2018-10-07T01:31:30.871Z,14.77
2018-10-07T01:33:59.055Z,11.93
2018-10-07T01:36:27.199Z,13.47
2018-10-07T01:38:55.112Z,11.43
2018-10-07T01:41:23.038Z,10.57
2018-10-07T01:43:51.197Z,13.23
2018-10-07T01:46:19.130Z,11.90
2018-10-07T01:48:47.085Z,12.17
2018-10-07T01:51:14.989Z,10.90
2018-10-07T01:53:43.155Z,11.80
2018-10-07T01:56:11.315Z,11.43
2018-10-07T01:58:39.450Z,11.33
2018-10-07T02:01:07.458Z,11.37
2018-10-07T02:03:35.593Z,12.13
2018-10-07T02:06:03.746Z,10.53
2018-10-07T02:08:31.901Z,11.53
2018-10-07T02:10:59.825Z,12.43
2018-10-07T02:13:27.975Z,10.67
2018-10-07T02:15:56.195Z,10.90
2018-10-07T02:18:24.329Z,9.60
2018-10-07T02:20:52.478Z,10.97
2018-10-07T02:23:20.620Z,11.43
2018-10-07T02:25:48.750Z,11.57
2018-10-07T02:28:16.898Z,10.17
2018-10-07T02:30:45.069Z,12.20
2018-10-07T02:33:13.215Z,10.73
2018-10-07T02:35:41.350Z,9.60
2018-10-07T02:38:09.484Z,10.93
2018-10-07T02:40:39.960Z,14.00
2018-10-07T02:43:08.111Z,10.73
2018-10-07T02:45:36.263Z,10.93
2018-10-07T02:48:04.398Z,11.60
2018-10-07T02:50:32.547Z,11.60
2018-10-07T02:53:00.688Z,12.07
2018-10-07T02:55:31.045Z,10.90
2018-10-07T02:58:00.951Z,11.10
2018-10-07T03:00:29.099Z,11.93
2018-10-07T03:02:57.002Z,11.30
2018-10-07T03:05:25.175Z,13.03
2018-10-07T03:07:53.311Z,12.87
2018-10-07T03:10:21.480Z,12.07
2018-10-07T03:12:49.613Z,11.07
2018-10-07T03:15:17.779Z,14.60
2018-10-07T03:17:45.685Z,11.67
2018-10-07T03:20:13.883Z,13.27
2018-10-07T03:22:42.027Z,11.73
2018-10-07T03:25:09.946Z,11.43
2018-10-07T03:27:38.088Z,11.83
2018-10-07T03:30:06.249Z,12.17
2018-10-07T03:32:34.385Z,10.93
2018-10-07T03:35:02.531Z,16.27
2018-10-07T03:37:30.688Z,12.17
2018-10-07T03:39:58.829Z,11.97
2018-10-07T03:42:26.999Z,14.87
2018-10-07T03:44:54.897Z,13.10
2018-10-07T03:47:22.842Z,13.23
2018-10-07T03:49:50.753Z,14.90
2018-10-07T03:52:18.694Z,12.23
2018-10-07T03:54:46.835Z,12.13
2018-10-07T03:57:14.986Z,11.80
2018-10-07T03:59:43.130Z,12.07
2018-10-07T04:02:11.289Z,17.87
2018-10-07T04:04:39.454Z,14.07
2018-10-07T04:07:07.601Z,11.47
2018-10-07T04:09:35.740Z,13.00
2018-10-07T04:12:03.926Z,11.23
2018-10-07T04:14:32.099Z,13.53
2018-10-07T04:17:00.322Z,12.27
2018-10-07T04:19:28.221Z,11.57
2018-10-07T04:21:57.470Z,11.80
2018-10-07T04:24:26.913Z,12.13
2018-10-07T04:26:55.078Z,11.50
2018-10-07T04:29:22.981Z,11.37
2018-10-07T04:31:51.159Z,12.40
2018-10-07T04:34:19.098Z,12.37
2018-10-07T04:36:47.263Z,14.40
2018-10-07T04:39:15.411Z,11.27
2018-10-07T04:41:44.286Z,11.53
2018-10-07T04:44:12.445Z,12.30
2018-10-07T04:46:40.678Z,11.07
2018-10-07T04:49:08.851Z,12.13
2018-10-07T04:51:37.150Z,11.83
2018-10-07T04:54:05.177Z,12.13
2018-10-07T04:56:33.295Z,16.93
2018-10-07T04:59:01.199Z,13.07
2018-10-07T05:01:29.359Z,12.47
2018-10-07T05:03:58.111Z,16.67
2018-10-07T05:06:28.368Z,11.80
2018-10-07T05:08:56.620Z,12.73
2018-10-07T05:11:27.383Z,11.37
2018-10-07T05:13:56.379Z,15.00
2018-10-07T05:16:28.207Z,10.97
2018-10-07T05:18:56.369Z,13.40
2018-10-07T05:21:24.545Z,12.87
2018-10-07T05:23:52.936Z,12.13
2018-10-07T05:26:20.960Z,11.00
2018-10-07T05:28:49.096Z,13.10
2018-10-07T05:31:17.258Z,12.13
2018-10-07T05:33:45.427Z,12.97
2018-10-07T05:36:13.595Z,11.80
2018-10-07T05:38:41.510Z,14.37
2018-10-07T05:41:09.746Z,11.23
2018-10-07T05:43:37.965Z,11.97
2018-10-07T05:46:06.140Z,12.60
2018-10-07T05:48:34.087Z,12.67
2018-10-07T05:51:02.365Z,12.37
2018-10-07T05:53:30.494Z,11.63
2018-10-07T05:55:58.655Z,13.07
2018-10-07T05:58:27.459Z,13.17
2018-10-07T06:00:58.903Z,13.27
2018-10-07T06:03:34.599Z,13.43
2018-10-07T06:06:02.747Z,14.50
2018-10-07T06:08:30.947Z,16.30
2018-10-07T06:10:58.906Z,15.30
2018-10-07T06:13:27.066Z,13.30
2018-10-07T06:15:54.988Z,14.17
2018-10-07T06:18:22.930Z,13.27
2018-10-07T06:20:50.856Z,13.20
2018-10-07T06:23:19.010Z,15.40
2018-10-07T06:25:46.934Z,13.33
2018-10-07T06:28:14.883Z,14.63
2018-10-07T06:30:43.060Z,15.20
2018-10-07T06:33:11.021Z,15.17
2018-10-07T06:35:39.179Z,16.57
2018-10-07T06:38:07.346Z,16.43
2018-10-07T06:40:35.539Z,13.87
2018-10-07T06:43:03.476Z,15.40
2018-10-07T06:45:31.711Z,14.83
2018-10-07T06:47:59.859Z,19.60
2018-10-07T06:50:28.106Z,12.77
2018-10-07T06:52:56.276Z,11.67
2018-10-07T06:55:24.416Z,11.30
2018-10-07T06:57:52.571Z,10.93
2018-10-07T07:00:20.730Z,11.90
2018-10-07T07:02:48.914Z,12.83
2018-10-07T07:05:17.088Z,11.93
2018-10-07T07:07:45.245Z,13.27
2018-10-07T07:10:13.438Z,12.20
2018-10-07T07:12:41.611Z,12.77
2018-10-07T07:15:09.783Z,11.50
2018-10-07T07:17:37.973Z,11.57
2018-10-07T07:20:06.169Z,12.13
2018-10-07T07:22:34.325Z,12.30
2018-10-07T07:25:02.486Z,10.87
2018-10-07T07:27:30.387Z,11.93
2018-10-07T07:29:58.572Z,10.90
2018-10-07T07:32:26.727Z,10.43
2018-10-07T07:34:54.907Z,10.53
2018-10-07T07:37:23.039Z,11.40
2018-10-07T07:39:51.199Z,9.33
2018-10-07T07:42:19.146Z,10.47
2018-10-07T07:44:47.290Z,9.07
2018-10-07T07:47:15.441Z,9.17
2018-10-07T07:49:43.599Z,7.90
2018-10-07T07:52:11.792Z,9.03
2018-10-07T07:54:40.017Z,12.17
2018-10-07T07:57:08.116Z,9.10
2018-10-07T07:59:36.279Z,8.47
2018-10-07T08:02:04.431Z,9.43
2018-10-07T08:04:32.582Z,10.97
2018-10-07T08:07:00.714Z,7.77
2018-10-07T08:09:28.876Z,8.27
2018-10-07T08:11:57.023Z,7.53
2018-10-07T08:14:24.964Z,7.70
2018-10-07T08:16:53.113Z,8.37
2018-10-07T08:19:21.108Z,8.43
2018-10-07T08:21:49.099Z,9.43
2018-10-07T08:24:17.018Z,8.17
2018-10-07T08:26:45.181Z,7.83
2018-10-07T08:29:13.321Z,6.90
2018-10-07T08:31:41.464Z,6.47
2018-10-07T08:34:09.381Z,6.63
2018-10-07T08:36:37.535Z,6.73
2018-10-07T08:39:06.717Z,6.47
2018-10-07T08:41:34.648Z,7.17
2018-10-07T08:44:02.839Z,6.97
2018-10-07T08:46:30.743Z,7.07
2018-10-07T08:48:58.654Z,6.80
2018-10-07T08:51:26.793Z,9.93
2018-10-07T08:53:54.985Z,8.23
2018-10-07T08:56:23.185Z,5.73
2018-10-07T08:58:51.058Z,6.97
2018-10-07T09:01:19.249Z,6.90
2018-10-07T09:03:47.414Z,9.90
2018-10-07T09:06:15.566Z,9.83
2018-10-07T09:08:43.737Z,6.03
2018-10-07T09:11:11.939Z,7.33
2018-10-07T09:13:40.096Z,7.23
2018-10-07T09:16:08.255Z,6.03
2018-10-07T09:18:36.395Z,7.30
2018-10-07T09:21:04.583Z,5.93
2018-10-07T09:23:33.118Z,6.07
2018-10-07T09:26:01.317Z,6.63
2018-10-07T09:28:29.252Z,6.37
2018-10-07T09:30:57.402Z,6.37
2018-10-07T09:33:25.575Z,6.43
2018-10-07T09:35:53.495Z,5.37
2018-10-07T09:38:21.470Z,5.90
2018-10-07T09:40:49.476Z,5.37
2018-10-07T09:43:17.676Z,4.17
2018-10-07T09:45:45.869Z,5.43
2018-10-07T09:48:13.894Z,5.37
2018-10-07T09:50:42.180Z,7.23
2018-10-07T09:53:10.362Z,5.90
2018-10-07T09:55:38.519Z,5.30
2018-10-07T09:58:06.722Z,6.70
2018-10-07T10:00:40.533Z,5.37
2018-10-07T10:03:09.635Z,6.97
2018-10-07T10:05:37.788Z,5.90
2018-10-07T10:08:06.124Z,5.23
2018-10-07T10:10:34.283Z,6.93
2018-10-07T10:13:02.438Z,5.47
2018-10-07T10:15:30.590Z,7.37
2018-10-07T10:18:06.369Z,12.07
2018-10-07T10:20:47.798Z,5.53
2018-10-07T10:23:23.679Z,9.07
2018-10-07T10:26:26.549Z,6.80
2018-10-07T10:29:10.007Z,5.50
2018-10-07T10:31:42.339Z,6.37
2018-10-07T10:34:30.347Z,8.23
2018-10-07T10:37:02.933Z,9.20
2018-10-07T10:40:10.329Z,5.90
2018-10-07T10:42:42.871Z,10.20
2018-10-07T10:45:34.205Z,7.17
2018-10-07T10:48:09.003Z,9.23
2018-10-07T10:50:41.671Z,7.10
2018-10-07T10:53:15.962Z,5.10
2018-10-07T10:55:51.299Z,7.83
2018-10-07T10:58:29.095Z,4.80
2018-10-07T11:00:58.331Z,9.37
2018-10-07T11:03:38.981Z,6.20
2018-10-07T11:06:17.280Z,8.77
2018-10-07T11:09:11.563Z,9.17
2018-10-07T11:11:49.856Z,6.97
2018-10-07T11:14:32.272Z,5.53
2018-10-07T11:17:12.131Z,6.00
2018-10-07T11:20:02.711Z,8.23
2018-10-07T11:22:44.574Z,5.23
2018-10-07T11:27:25.857Z,5.33
2018-10-07T11:30:02.178Z,7.57
2018-10-07T11:34:46.899Z,6.00
2018-10-07T11:37:24.941Z,5.43
2018-10-07T11:41:17.190Z,6.07
2018-10-07T11:43:52.537Z,4.83
2018-10-07T11:47:02.655Z,5.30
2018-10-07T11:49:43.686Z,6.63
2018-10-07T11:52:24.841Z,6.60
2018-10-07T11:54:52.937Z,7.03
2018-10-07T11:57:21.089Z,4.90
2018-10-07T11:59:49.264Z,5.93
2018-10-07T12:02:17.483Z,6.33
2018-10-07T12:04:45.555Z,6.23
2018-10-07T12:07:13.487Z,4.97
2018-10-07T12:09:41.660Z,9.83
2018-10-07T12:12:09.817Z,5.20
2018-10-07T12:14:38.032Z,7.37
2018-10-07T12:17:06.272Z,5.10
2018-10-07T12:19:34.546Z,5.00
2018-10-07T12:22:02.496Z,7.23
2018-10-07T12:24:30.666Z,5.40
2018-10-07T12:26:58.899Z,4.87
2018-10-07T12:29:27.075Z,6.03
2018-10-07T12:31:55.339Z,7.17
2018-10-07T12:34:23.510Z,5.87
2018-10-07T12:36:51.756Z,4.27
2018-10-07T12:39:19.850Z,7.87
2018-10-07T12:41:48.312Z,6.33
2018-10-07T12:44:16.484Z,5.13
2018-10-07T12:46:44.663Z,7.83
2018-10-07T12:49:12.839Z,5.23
2018-10-07T12:51:41.114Z,5.47
2018-10-07T12:54:09.097Z,5.53
2018-10-07T12:56:37.289Z,6.23
2018-10-07T12:59:05.555Z,6.60
2018-10-07T13:01:33.720Z,6.93
2018-10-07T13:04:01.849Z,6.97
2018-10-07T13:06:30.084Z,7.57
2018-10-07T13:08:58.238Z,4.90
2018-10-07T13:11:26.155Z,6.87
2018-10-07T13:13:54.298Z,6.77
2018-10-07T13:16:22.554Z,4.43
2018-10-07T13:18:50.762Z,4.37
2018-10-07T13:21:18.914Z,6.97
2018-10-07T13:23:47.295Z,4.10
2018-10-07T13:26:15.241Z,7.87
2018-10-07T13:28:43.188Z,6.53
2018-10-07T13:31:11.160Z,9.77
2018-10-07T13:33:39.431Z,6.40
2018-10-07T13:36:07.598Z,6.37
2018-10-07T13:38:35.760Z,6.30
2018-10-07T13:41:03.983Z,4.10
2018-10-07T13:43:32.160Z,6.70
2018-10-07T13:46:00.382Z,6.73
2018-10-07T13:48:28.546Z,7.03
2018-10-07T13:50:56.701Z,5.10
2018-10-07T13:53:24.673Z,8.83
2018-10-07T13:55:52.769Z,5.77
2018-10-07T13:58:20.930Z,5.20
2018-10-07T14:00:49.087Z,7.03
2018-10-07T14:03:17.006Z,5.40
2018-10-07T14:05:45.159Z,6.13
2018-10-07T14:08:13.339Z,5.83
2018-10-07T14:10:41.511Z,5.57
2018-10-07T14:13:09.454Z,4.17
2018-10-07T14:15:37.627Z,8.40
2018-10-07T14:18:05.996Z,5.07
2018-10-07T14:20:34.141Z,4.80
2018-10-07T14:23:02.367Z,4.80
2018-10-07T14:25:30.544Z,4.80
2018-10-07T14:27:58.734Z,5.13
2018-10-07T14:30:26.642Z,5.83
2018-10-07T14:32:54.838Z,5.33
2018-10-07T14:35:22.983Z,7.03
2018-10-07T14:37:51.131Z,6.03
2018-10-07T14:40:19.277Z,7.23
2018-10-07T14:42:47.426Z,5.40
2018-10-07T14:45:15.615Z,5.93
2018-10-07T14:47:43.787Z,8.00
2018-10-07T14:50:11.938Z,8.17
2018-10-07T14:52:40.115Z,7.90
2018-10-07T14:55:08.349Z,8.33
2018-10-07T14:57:36.435Z,6.67
2018-10-07T15:00:04.678Z,7.20
2018-10-07T15:02:32.857Z,8.60
2018-10-07T15:05:01.042Z,9.53
2018-10-07T15:07:29.200Z,7.23
2018-10-07T15:09:57.175Z,9.70
2018-10-07T15:12:25.098Z,5.43
2018-10-07T15:14:53.013Z,5.37
2018-10-07T15:17:20.944Z,10.90
2018-10-07T15:19:48.894Z,6.90
2018-10-07T15:22:17.060Z,5.87
2018-10-07T15:24:44.988Z,8.77
2018-10-07T15:27:13.138Z,6.03
2018-10-07T15:29:41.365Z,7.13
2018-10-07T15:32:09.470Z,6.73
2018-10-07T15:34:37.638Z,5.27
2018-10-07T15:37:05.793Z,7.20
2018-10-07T15:39:33.710Z,5.70
2018-10-07T15:42:01.910Z,11.37
2018-10-07T15:44:30.076Z,8.43
2018-10-07T15:46:58.271Z,6.47
2018-10-07T15:49:26.435Z,7.27
2018-10-07T15:51:54.595Z,9.13
2018-10-07T15:54:22.793Z,10.90
2018-10-07T15:56:51.018Z,12.83
2018-10-07T15:59:19.103Z,7.10
2018-10-07T16:01:47.240Z,7.60
2018-10-07T16:04:15.418Z,8.27
2018-10-07T16:06:43.581Z,6.10
2018-10-07T16:09:11.739Z,7.30
2018-10-07T16:11:39.873Z,9.20
2018-10-07T16:14:08.069Z,7.27
2018-10-07T16:16:36.220Z,9.77
2018-10-07T16:19:04.469Z,9.13
2018-10-07T16:21:32.640Z,8.63
2018-10-07T16:24:00.790Z,8.30
2018-10-07T16:26:29.007Z,8.13
2018-10-07T16:28:57.179Z,10.50
2018-10-07T16:31:30.939Z,8.50
2018-10-07T16:33:59.138Z,9.65
2018-10-07T16:36:27.300Z,15.20
2018-10-07T16:38:55.530Z,10.83
2018-10-07T16:41:23.703Z,10.40
2018-10-07T16:43:51.875Z,9.47
2018-10-07T16:46:20.035Z,10.70
2018-10-07T16:48:48.182Z,7.93
2018-10-07T16:51:16.350Z,8.77
2018-10-07T16:53:44.537Z,9.33
2018-10-07T16:56:12.687Z,10.67
2018-10-07T16:58:40.890Z,14.17
2018-10-07T17:01:09.075Z,11.87
2018-10-07T17:03:37.228Z,13.93
2018-10-07T17:06:05.417Z,12.80
2018-10-07T17:08:33.575Z,14.70
2018-10-07T17:11:01.771Z,14.53
2018-10-07T17:13:30.811Z,12.80
2018-10-07T17:15:58.638Z,12.40
2018-10-07T17:18:26.795Z,15.23
2018-10-07T17:20:54.766Z,12.97
2018-10-07T17:23:22.656Z,18.07
2018-10-07T17:25:50.820Z,12.07
2018-10-07T17:28:18.984Z,13.40
2018-10-07T17:30:47.160Z,11.63
2018-10-07T17:33:15.331Z,13.17
2018-10-07T17:35:43.505Z,12.83
2018-10-07T17:38:11.694Z,14.93
2018-10-07T17:40:39.669Z,11.53
2018-10-07T17:43:07.597Z,11.83
2018-10-07T17:45:35.798Z,18.20
2018-10-07T17:48:04.029Z,11.30
2018-10-07T17:50:31.973Z,13.30
2018-10-07T17:53:00.210Z,13.63
2018-10-07T17:55:28.485Z,14.53
2018-10-07T17:57:56.454Z,13.27
2018-10-07T18:00:24.633Z,12.97
2018-10-07T18:02:52.649Z,13.60
2018-10-07T18:05:20.747Z,15.53
2018-10-07T18:07:48.925Z,13.40
2018-10-07T18:10:17.198Z,15.27
2018-10-07T18:12:45.395Z,14.27
2018-10-07T18:15:13.777Z,17.53
2018-10-07T18:17:42.096Z,19.83
2018-10-07T18:20:10.263Z,20.85
2018-10-07T18:22:38.473Z,20.70
2018-10-07T18:25:06.663Z,20.73
2018-10-07T18:27:34.845Z,19.73
2018-10-07T18:30:03.090Z,19.17
2018-10-07T18:32:31.287Z,19.77
2018-10-07T18:34:59.501Z,20.80
2018-10-07T18:37:27.678Z,23.33
2018-10-07T18:39:55.876Z,21.83
2018-10-07T18:42:24.035Z,26.03
2018-10-07T18:44:52.243Z,25.30
2018-10-07T18:47:20.417Z,23.50
2018-10-07T18:49:48.395Z,28.00
2018-10-07T18:52:16.576Z,25.93
2018-10-07T18:54:44.820Z,26.63
2018-10-07T18:57:12.913Z,22.77
2018-10-07T18:59:41.087Z,24.63
2018-10-07T19:02:09.263Z,27.80
2018-10-07T19:04:37.434Z,26.70
2018-10-07T19:07:05.624Z,26.63
2018-10-07T19:09:33.790Z,28.40
2018-10-07T19:12:01.966Z,28.23
2018-10-07T19:14:30.191Z,29.97
2018-10-07T19:16:58.364Z,30.30
2018-10-07T19:19:26.310Z,28.67
2018-10-07T19:21:54.475Z,26.97
2018-10-07T19:24:28.900Z,27.50
2018-10-07T19:26:57.107Z,26.53
2018-10-07T19:29:25.315Z,25.77
2018-10-07T19:31:53.494Z,27.47
2018-10-07T19:34:21.684Z,28.60
2018-10-07T19:36:49.649Z,27.27
2018-10-07T19:39:17.817Z,31.07
2018-10-07T19:41:46.016Z,30.60
2018-10-07T19:44:14.173Z,29.57
2018-10-07T19:46:42.114Z,27.67
2018-10-07T19:49:10.074Z,27.87
2018-10-07T19:51:38.968Z,25.77
2018-10-07T19:54:06.919Z,24.07
2018-10-07T19:56:35.111Z,31.60
2018-10-07T19:59:03.117Z,33.37
2018-10-07T20:01:31.291Z,26.20
2018-10-07T20:04:00.574Z,26.93
2018-10-07T20:06:28.765Z,26.00
2018-10-07T20:08:56.925Z,30.23
2018-10-07T20:11:25.106Z,26.40
2018-10-07T20:13:53.273Z,25.50
2018-10-07T20:16:21.205Z,25.63
2018-10-07T20:18:49.185Z,27.83
2018-10-07T20:21:17.123Z,24.83
2018-10-07T20:23:45.066Z,27.47
2018-10-07T20:26:13.008Z,26.47
2018-10-07T20:28:40.943Z,27.80
2018-10-07T20:31:09.172Z,29.83
2018-10-07T20:33:37.461Z,25.47
2018-10-07T20:36:05.389Z,26.60
2018-10-07T20:38:33.331Z,25.53
2018-10-07T20:41:01.565Z,26.17
2018-10-07T20:43:29.744Z,29.07
2018-10-07T20:45:57.915Z,26.67
2018-10-07T20:48:26.085Z,28.80
2018-10-07T20:50:54.283Z,30.50
2018-10-07T20:53:22.540Z,27.83
2018-10-07T20:55:50.771Z,27.77
2018-10-07T20:58:19.618Z,31.73
2018-10-07T21:00:47.793Z,27.17
2018-10-07T21:03:15.964Z,29.73
2018-10-07T21:05:44.160Z,27.73
2018-10-07T21:08:12.349Z,31.93
2018-10-07T21:10:40.531Z,26.33
2018-10-07T21:13:08.692Z,31.07
2018-10-07T21:15:36.615Z,31.00
2018-10-07T21:18:04.991Z,29.07
2018-10-07T21:20:32.990Z,30.37
2018-10-07T21:23:00.925Z,33.67
2018-10-07T21:25:29.682Z,29.87
2018-10-07T21:27:57.857Z,30.03
2018-10-07T21:30:26.019Z,34.53
2018-10-07T21:32:54.171Z,29.97
2018-10-07T21:35:22.338Z,30.33
2018-10-07T21:37:50.307Z,36.73
2018-10-07T21:40:18.450Z,35.83
2018-10-07T21:42:46.612Z,31.30
2018-10-07T21:45:14.753Z,30.53
2018-10-07T21:47:42.675Z,30.17
2018-10-07T21:50:10.844Z,38.57
2018-10-07T21:52:39.004Z,32.40
2018-10-07T21:55:07.207Z,36.47
2018-10-07T21:57:35.294Z,31.07
2018-10-07T22:00:03.266Z,34.37
2018-10-07T22:02:31.445Z,33.53
2018-10-07T22:04:59.634Z,32.83
2018-10-07T22:07:27.810Z,32.93
2018-10-07T22:09:55.970Z,39.33
2018-10-07T22:12:24.158Z,31.60
2018-10-07T22:14:52.327Z,34.93
2018-10-07T22:17:20.513Z,32.87
2018-10-07T22:19:48.721Z,39.10
2018-10-07T22:22:16.848Z,33.47
2018-10-07T22:24:45.001Z,37.13
2018-10-07T22:27:13.247Z,35.37
2018-10-07T22:29:41.411Z,34.60
2018-10-07T22:32:09.579Z,34.83
2018-10-07T22:34:37.731Z,40.67
2018-10-07T22:37:05.905Z,38.30
2018-10-07T22:39:34.067Z,40.23
2018-10-07T22:42:02.216Z,34.60
2018-10-07T22:44:30.415Z,34.63
2018-10-07T22:46:58.604Z,35.97
2018-10-07T22:49:26.541Z,37.47
2018-10-07T22:51:54.674Z,36.77
2018-10-07T22:54:22.841Z,38.83
2018-10-07T22:56:51.003Z,35.93
2018-10-07T22:59:19.182Z,38.43
2018-10-07T23:01:47.383Z,43.83
2018-10-07T23:04:15.677Z,45.13
2018-10-07T23:06:43.835Z,50.27
2018-10-07T23:09:12.996Z,45.93
2018-10-07T23:11:41.523Z,40.47
2018-10-07T23:14:09.521Z,41.33
2018-10-07T23:16:37.688Z,45.50
2018-10-07T23:19:05.826Z,38.93
2018-10-07T23:21:33.978Z,41.33
2018-10-07T23:24:02.130Z,37.50
2018-10-07T23:26:30.324Z,34.77
2018-10-07T23:28:58.499Z,45.43
2018-10-07T23:31:26.659Z,51.43
2018-10-07T23:33:54.862Z,49.03
2018-10-07T23:36:23.098Z,47.23
2018-10-07T23:38:51.262Z,52.63
2018-10-07T23:41:19.426Z,48.77
2018-10-07T23:43:47.616Z,59.80
2018-10-07T23:46:15.786Z,51.13
2018-10-07T23:48:43.925Z,52.07
2018-10-07T23:51:12.087Z,49.77
2018-10-07T23:53:40.240Z,54.50
2018-10-07T23:56:08.391Z,52.30
2018-10-07T23:58:36.559Z,42.67
